Farmers Retreat, Indiana
Current Conditions -  °F | °C
As of 6:52 PM on Tuesday 25 Nov 2014 (Local Time) from KCVG Reporting Station
Broken Clouds Broken Clouds  
Wind Chill: 31°   Ceiling: 20000
Heat Index: 37°   Visibility: 10mi
Dew Point: 26°   Wind: 8mph
Humidity: 65%   Direction: 330°NNW
Pressure: 30.15"   Gusts: NA
Location:  38.9645°N, 85.0582°W
Report Text: KCVG 252352Z 33007KT 10SM BKN200 03/M03 A3015 RMK AO2 SLP214 T00281033 10067 20028 51017
Loading
Personal Weather Stations






























Interactive Weather Map New forecast layout! Learn more

10-Day Weather Forecast

Advertisements
Track Severe Weather on mobile